SKMD

Details ICAO SKMD (EOH)
Name Medellin Olaya Herrera
Region Colombia
Timezone America/Bogota (UTC-5.0)
Plans Departing 109
Arriving 79
Stats Elevation 4,940 ft / 1,506 m (AMSL)
Location 6.219958° -75.590519°
Runways 1
Magnetic Variation 6.528° W
Sunrise 2017-12-11 11:04:09 UTC / 2017-12-11 06:04:09 Local
Sunset 2017-12-11 22:50:11 UTC / 2017-12-11 17:50:11 Local
Advertisement - Login to hide

Runways

ID Width Length Bearing (true) Bearing (mag) Surface Threshold Offset Overrun Length
02 148 ft / 45 m 8,324 ft / 2,537 m 10.66° 17.19° Asphalt 1,316 ft / 401 m 0 ft / 0 m
20 148 ft / 45 m 8,324 ft / 2,537 m 190.66° 197.19° Asphalt 1,012 ft / 308 m 0 ft / 0 m

Map

Weather


0- 5 10 15 20 25 30 35+ Temperature / ° C

Clouds and Precipitation
Forecast for 2017-12-11 18:00 UTC. Updated 10 minutes ago

Ground ~20,000 ft ~40,000 ft Winds

METAR

SKMD 111700Z 22005KT 9999 SCT033 26/16 A3014

TAF

Not found

Frequencies

Ground 121.90 MHz GND
Approach 121.10 MHz MEDELLIN APP
Tower 118.90 MHz TWR
Warning: Do not use this data for real-world aviation or navigation. No guarantee of current accuracy is given.